createdAt,value
2023-03-04T00:00:57.485Z,1.84
2023-03-04T00:04:04.051Z,1.89
2023-03-04T00:07:09.992Z,1.94
2023-03-04T00:10:17.066Z,1.96
2023-03-04T00:13:23.136Z,1.91
2023-03-04T00:16:32.247Z,1.80
2023-03-04T00:19:38.752Z,1.84
2023-03-04T00:22:45.287Z,1.88
2023-03-04T00:25:51.165Z,1.83
2023-03-04T00:28:57.735Z,1.78
2023-03-04T00:32:06.326Z,1.76
2023-03-04T00:35:13.286Z,1.68
2023-03-04T00:38:19.176Z,1.65
2023-03-04T00:41:27.075Z,1.63
2023-03-04T00:44:32.894Z,1.67
2023-03-04T00:47:42.564Z,1.70
2023-03-04T00:50:49.250Z,1.70
2023-03-04T00:53:55.859Z,1.69
2023-03-04T00:57:01.722Z,1.67
2023-03-04T01:00:10.725Z,1.65
2023-03-04T01:03:19.218Z,1.68
2023-03-04T01:06:25.931Z,1.65
2023-03-04T01:09:31.815Z,1.59
2023-03-04T01:12:40.283Z,1.59
2023-03-04T01:15:46.794Z,1.55
2023-03-04T01:18:55.970Z,1.56
2023-03-04T01:22:01.707Z,1.52
2023-03-04T01:25:10.968Z,1.49
2023-03-04T01:28:16.858Z,1.44
2023-03-04T01:31:26.490Z,1.59
2023-03-04T01:34:37.396Z,1.67
2023-03-04T01:37:44.183Z,1.64
2023-03-04T01:40:50.216Z,1.69
2023-03-04T01:44:00.998Z,1.66
2023-03-04T01:47:07.314Z,1.62
2023-03-04T01:50:27.005Z,1.64
2023-03-04T01:53:36.061Z,1.67
2023-03-04T01:56:43.939Z,1.66
2023-03-04T01:59:51.141Z,1.74
2023-03-04T02:03:02.743Z,1.77
2023-03-04T02:06:11.409Z,1.80
2023-03-04T02:09:20.615Z,1.87
2023-03-04T02:12:26.883Z,1.85
2023-03-04T02:15:34.636Z,1.83
2023-03-04T02:18:40.523Z,1.79
2023-03-04T02:21:49.969Z,1.86
2023-03-04T02:25:03.772Z,1.90
2023-03-04T02:28:13.086Z,1.89
2023-03-04T02:31:29.641Z,1.93
2023-03-04T02:34:39.562Z,1.83
2023-03-04T02:37:45.266Z,1.69
2023-03-04T02:40:58.960Z,1.69
2023-03-04T02:44:19.975Z,1.72
2023-03-04T02:47:26.513Z,1.63
2023-03-04T02:50:42.170Z,1.62
2023-03-04T02:53:49.124Z,1.68
2023-03-04T02:56:57.928Z,1.63
2023-03-04T03:00:09.804Z,1.56
2023-03-04T03:03:16.033Z,1.57
2023-03-04T03:06:22.714Z,1.61
2023-03-04T03:09:29.056Z,1.62
2023-03-04T03:12:36.588Z,1.46
2023-03-04T03:15:46.052Z,1.40
2023-03-04T03:18:55.136Z,1.45
2023-03-04T03:22:01.499Z,1.58
2023-03-04T03:25:10.629Z,1.62
2023-03-04T03:28:16.810Z,1.70
2023-03-04T03:31:26.236Z,1.69
2023-03-04T03:34:32.079Z,1.65
2023-03-04T03:37:38.640Z,1.58
2023-03-04T03:40:44.435Z,1.56
2023-03-04T03:43:51.043Z,1.50
2023-03-04T03:46:59.525Z,1.50
2023-03-04T03:50:06.982Z,1.51
2023-03-04T03:53:12.794Z,1.47
2023-03-04T03:56:20.595Z,1.41
2023-03-04T03:59:27.019Z,1.38
2023-03-04T04:02:36.382Z,1.26
2023-03-04T04:05:42.347Z,1.21
2023-03-04T04:08:48.916Z,1.22
2023-03-04T04:11:57.156Z,1.21
2023-03-04T04:15:04.095Z,1.17
2023-03-04T04:18:13.255Z,1.15
2023-03-04T04:21:19.935Z,1.09
2023-03-04T04:24:26.132Z,1.06
2023-03-04T04:27:32.708Z,1.09
2023-03-04T04:30:39.362Z,1.19
2023-03-04T04:33:48.613Z,1.29
2023-03-04T04:36:54.828Z,1.37
2023-03-04T04:40:01.414Z,1.33
2023-03-04T04:43:07.537Z,1.37
2023-03-04T04:46:14.258Z,1.42
2023-03-04T04:49:23.046Z,1.38
2023-03-04T04:52:29.576Z,1.39
2023-03-04T04:55:36.948Z,1.41
2023-03-04T04:58:43.816Z,1.25
2023-03-04T05:01:49.883Z,1.20
2023-03-04T05:04:59.025Z,1.27
2023-03-04T05:08:04.861Z,1.18
2023-03-04T05:11:12.569Z,1.28
2023-03-04T05:14:18.299Z,1.16
2023-03-04T05:17:25.356Z,1.13
2023-03-04T05:20:33.838Z,1.11
2023-03-04T05:23:43.491Z,1.15
2023-03-04T05:26:49.498Z,1.09
2023-03-04T05:29:56.054Z,1.15
2023-03-04T05:33:01.979Z,1.12
2023-03-04T05:36:12.694Z,1.10
2023-03-04T05:39:18.719Z,1.15
2023-03-04T05:42:26.363Z,1.18
2023-03-04T05:45:35.714Z,1.18
2023-03-04T05:48:42.356Z,1.19
2023-03-04T05:51:50.709Z,1.23
2023-03-04T05:54:57.490Z,1.24
2023-03-04T05:58:03.322Z,1.27
2023-03-04T06:01:10.926Z,1.36
2023-03-04T06:04:16.747Z,1.37
2023-03-04T06:07:26.123Z,1.45
2023-03-04T06:10:32.015Z,1.39
2023-03-04T06:13:39.081Z,1.37
2023-03-04T06:16:45.319Z,1.32
2023-03-04T06:19:52.014Z,1.28
2023-03-04T06:23:00.475Z,1.30
2023-03-04T06:26:09.515Z,1.32
2023-03-04T06:29:15.240Z,1.40
2023-03-04T06:32:21.841Z,1.35
2023-03-04T06:35:27.836Z,1.32
2023-03-04T06:38:37.329Z,1.31
2023-03-04T06:41:43.559Z,1.24
2023-03-04T06:44:52.139Z,1.30
2023-03-04T06:47:57.863Z,1.27
2023-03-04T06:51:09.891Z,1.32
2023-03-04T06:54:18.229Z,1.26
2023-03-04T06:57:24.781Z,1.28
2023-03-04T07:00:30.554Z,1.20
2023-03-04T07:03:37.325Z,1.14
2023-03-04T07:06:43.227Z,0.97
2023-03-04T07:09:52.454Z,1.00
2023-03-04T07:12:58.281Z,1.09
2023-03-04T07:16:05.515Z,1.11
2023-03-04T07:19:11.444Z,1.15
2023-03-04T07:22:18.005Z,1.19
2023-03-04T07:25:26.477Z,1.30
2023-03-04T07:28:33.571Z,1.26
2023-03-04T07:31:41.201Z,1.26
2023-03-04T07:34:47.880Z,1.39
2023-03-04T07:37:56.040Z,1.40
2023-03-04T07:41:05.885Z,1.38
2023-03-04T07:44:15.342Z,1.39
2023-03-04T07:47:22.124Z,1.42
2023-03-04T07:50:28.457Z,1.38
2023-03-04T07:53:35.876Z,1.28
2023-03-04T07:56:44.338Z,1.30
2023-03-04T07:59:50.943Z,1.27
2023-03-04T08:02:56.626Z,1.26
2023-03-04T08:06:03.155Z,1.15
2023-03-04T08:09:15.357Z,1.04
2023-03-04T08:12:25.022Z,1.03
2023-03-04T08:15:33.082Z,1.01
2023-03-04T08:18:39.826Z,1.09
2023-03-04T08:21:45.702Z,1.17
2023-03-04T08:24:52.461Z,1.20
2023-03-04T08:28:01.657Z,1.20
2023-03-04T08:31:11.881Z,1.25
2023-03-04T08:34:18.218Z,1.22
2023-03-04T08:37:24.735Z,1.17
2023-03-04T08:40:31.183Z,1.24
2023-03-04T08:43:40.958Z,1.25
2023-03-04T08:46:47.635Z,1.28
2023-03-04T08:49:54.533Z,1.42
2023-03-04T08:53:02.256Z,1.47
2023-03-04T08:56:10.756Z,1.44
2023-03-04T08:59:19.101Z,1.46
2023-03-04T09:02:25.758Z,1.45
2023-03-04T09:05:31.598Z,1.47
2023-03-04T09:08:39.218Z,1.50
2023-03-04T09:11:46.072Z,1.46
2023-03-04T09:15:08.661Z,1.45
2023-03-04T09:18:17.885Z,1.44
2023-03-04T09:21:24.648Z,1.43
2023-03-04T09:24:30.823Z,1.41
2023-03-04T09:27:37.891Z,1.35
2023-03-04T09:30:47.123Z,1.37
2023-03-04T09:33:56.096Z,1.39
2023-03-04T09:37:01.805Z,1.38
2023-03-04T09:40:12.100Z,1.42
2023-03-04T09:43:30.129Z,1.43
2023-03-04T09:46:44.715Z,1.44
2023-03-04T09:50:01.084Z,1.36
2023-03-04T09:53:26.220Z,1.39
2023-03-04T09:56:33.119Z,1.40
2023-03-04T09:59:54.912Z,1.41
2023-03-04T10:03:21.513Z,1.40
2023-03-04T10:06:28.555Z,1.39
2023-03-04T10:09:52.791Z,1.38
2023-03-04T10:13:04.896Z,1.49
2023-03-04T10:16:21.397Z,1.56
2023-03-04T10:19:57.873Z,1.54
2023-03-04T10:23:14.518Z,1.55
2023-03-04T10:26:26.104Z,1.54
2023-03-04T10:29:36.579Z,1.61
2023-03-04T10:32:53.367Z,1.60
2023-03-04T10:36:08.032Z,1.60
2023-03-04T10:39:19.715Z,1.53
2023-03-04T10:42:38.006Z,1.51
2023-03-04T10:45:45.713Z,1.50
2023-03-04T10:48:51.645Z,1.46
2023-03-04T10:52:22.067Z,1.46
2023-03-04T10:55:32.884Z,1.58
2023-03-04T10:58:39.632Z,1.62
2023-03-04T11:01:45.580Z,1.58
2023-03-04T11:05:00.899Z,1.55
2023-03-04T11:08:18.420Z,1.56
2023-03-04T11:11:35.254Z,1.50
2023-03-04T11:14:49.355Z,1.50
2023-03-04T11:18:02.511Z,1.57
2023-03-04T11:21:16.914Z,1.62
2023-03-04T11:24:33.442Z,1.75
2023-03-04T11:27:48.935Z,1.68
2023-03-04T11:31:03.156Z,1.74
2023-03-04T11:34:27.412Z,1.62
2023-03-04T11:37:44.058Z,1.68
2023-03-04T11:40:58.257Z,1.65
2023-03-04T11:44:09.965Z,1.70
2023-03-04T11:47:52.519Z,1.80
2023-03-04T11:51:12.847Z,1.70
2023-03-04T11:54:38.547Z,1.75
2023-03-04T11:58:06.864Z,1.82
2023-03-04T12:01:23.238Z,1.96
2023-03-04T12:05:09.803Z,2.03
2023-03-04T12:08:56.610Z,2.12
2023-03-04T12:12:29.821Z,2.20
2023-03-04T12:15:57.044Z,2.30
2023-03-04T12:19:22.883Z,2.31
2023-03-04T12:22:46.744Z,2.36
2023-03-04T12:26:07.354Z,2.39
2023-03-04T12:29:33.821Z,2.36
2023-03-04T12:33:01.495Z,2.37
2023-03-04T12:36:24.094Z,2.45
2023-03-04T12:39:42.935Z,2.49
2023-03-04T12:43:26.471Z,2.50
2023-03-04T12:46:52.229Z,2.47
2023-03-04T12:50:28.300Z,2.61
2023-03-04T12:53:51.093Z,2.69
2023-03-04T12:57:05.593Z,2.80
2023-03-04T13:00:34.726Z,2.89
2023-03-04T13:03:56.218Z,2.82
2023-03-04T13:07:25.432Z,2.83
2023-03-04T13:10:31.832Z,2.87
2023-03-04T13:13:43.062Z,2.92
2023-03-04T13:16:52.915Z,2.94
2023-03-04T13:20:20.847Z,2.97
2023-03-04T13:23:32.639Z,3.00
2023-03-04T13:26:41.273Z,3.08
2023-03-04T13:29:47.229Z,3.04
2023-03-04T13:32:57.038Z,3.05
2023-03-04T13:37:03.787Z,3.05
2023-03-04T13:40:40.951Z,3.16
2023-03-04T13:43:49.914Z,3.15
2023-03-04T13:47:01.956Z,3.14
2023-03-04T13:50:37.737Z,3.13
2023-03-04T13:53:55.517Z,3.22
2023-03-04T13:57:24.878Z,3.15
2023-03-04T14:00:33.258Z,3.04
2023-03-04T14:03:45.597Z,3.04
2023-03-04T14:07:03.717Z,3.06
2023-03-04T14:10:25.949Z,3.15
2023-03-04T14:13:35.518Z,3.16
2023-03-04T14:16:54.338Z,3.20
2023-03-04T14:20:05.543Z,3.09
2023-03-04T14:23:32.924Z,3.04
2023-03-04T14:26:41.696Z,3.04
2023-03-04T14:30:02.457Z,2.99
2023-03-04T14:33:19.652Z,3.01
2023-03-04T14:36:31.984Z,2.96
2023-03-04T14:39:49.531Z,2.97
2023-03-04T14:43:10.379Z,3.01
2023-03-04T14:46:36.722Z,3.12
2023-03-04T14:49:43.723Z,3.18
2023-03-04T14:52:53.435Z,3.11
2023-03-04T14:56:02.810Z,3.16
2023-03-04T14:59:09.452Z,3.15
2023-03-04T15:02:31.581Z,3.13
2023-03-04T15:05:39.881Z,3.07
2023-03-04T15:08:46.643Z,3.12
2023-03-04T15:12:00.780Z,3.15
2023-03-04T15:15:52.917Z,3.18
2023-03-04T15:19:26.338Z,3.12
2023-03-04T15:22:32.614Z,3.09
2023-03-04T15:25:46.355Z,3.08
2023-03-04T15:28:57.876Z,3.04
2023-03-04T15:32:13.975Z,3.06
2023-03-04T15:35:23.670Z,3.04
2023-03-04T15:38:33.909Z,3.08
2023-03-04T15:41:41.835Z,3.09
2023-03-04T15:44:48.778Z,3.13
2023-03-04T15:47:56.641Z,3.13
2023-03-04T15:51:14.246Z,3.15
2023-03-04T15:54:23.047Z,3.28
2023-03-04T15:57:36.404Z,3.32
2023-03-04T16:00:42.239Z,3.24
2023-03-04T16:03:53.490Z,3.23
2023-03-04T16:07:06.159Z,3.15
2023-03-04T16:10:27.407Z,3.19
2023-03-04T16:13:33.363Z,3.17
2023-03-04T16:16:46.181Z,3.08
2023-03-04T16:19:54.987Z,3.07
2023-03-04T16:23:06.385Z,3.01
2023-03-04T16:26:17.828Z,3.01
2023-03-04T16:29:24.578Z,2.97
2023-03-04T16:32:33.965Z,2.88
2023-03-04T16:35:46.146Z,2.80
2023-03-04T16:39:21.845Z,2.81
2023-03-04T16:42:31.076Z,2.75
2023-03-04T16:45:39.751Z,2.75
2023-03-04T16:48:47.665Z,2.81
2023-03-04T16:51:59.282Z,2.82
2023-03-04T16:55:13.369Z,2.83
2023-03-04T16:58:23.194Z,2.78
2023-03-04T17:01:36.874Z,2.81
2023-03-04T17:04:42.925Z,2.82
2023-03-04T17:07:54.437Z,2.85
2023-03-04T17:11:06.623Z,2.82
2023-03-04T17:14:17.613Z,2.82
2023-03-04T17:17:28.207Z,2.74
2023-03-04T17:20:42.462Z,2.67
2023-03-04T17:23:48.725Z,2.68
2023-03-04T17:27:00.929Z,2.71
2023-03-04T17:30:11.564Z,2.68
2023-03-04T17:33:18.309Z,2.70
2023-03-04T17:36:27.059Z,2.76
2023-03-04T17:39:33.807Z,2.76
2023-03-04T17:42:44.368Z,2.78
2023-03-04T17:45:51.041Z,2.79
2023-03-04T17:48:59.860Z,2.75
2023-03-04T17:52:10.474Z,2.72
2023-03-04T17:55:16.409Z,2.71
2023-03-04T17:58:27.143Z,2.62
2023-03-04T18:01:32.992Z,2.61
2023-03-04T18:04:39.732Z,2.67
2023-03-04T18:07:45.707Z,2.74
2023-03-04T18:10:52.367Z,2.73
2023-03-04T18:14:06.972Z,2.78
2023-03-04T18:17:19.320Z,2.94
2023-03-04T18:20:30.148Z,3.10
2023-03-04T18:23:41.232Z,3.23
2023-03-04T18:26:48.970Z,3.35
2023-03-04T18:29:59.234Z,3.37
2023-03-04T18:33:05.324Z,3.42
2023-03-04T18:36:17.062Z,3.44
2023-03-04T18:39:24.689Z,3.43
2023-03-04T18:42:34.328Z,3.53
2023-03-04T18:45:42.991Z,3.59
2023-03-04T18:48:56.877Z,3.67
2023-03-04T18:52:02.829Z,3.76
2023-03-04T18:55:11.659Z,3.76
2023-03-04T18:58:17.713Z,3.75
2023-03-04T19:01:29.161Z,3.86
2023-03-04T19:04:35.408Z,3.92
2023-03-04T19:07:46.236Z,3.82
2023-03-04T19:10:52.080Z,3.85
2023-03-04T19:13:58.769Z,3.85
2023-03-04T19:17:07.484Z,3.82
2023-03-04T19:20:16.547Z,3.81
2023-03-04T19:23:22.651Z,3.69
2023-03-04T19:26:29.547Z,3.66
2023-03-04T19:29:36.465Z,3.72
2023-03-04T19:32:49.160Z,3.78
2023-03-04T19:36:00.130Z,3.80
2023-03-04T19:39:06.974Z,3.84
2023-03-04T19:42:14.669Z,3.88
2023-03-04T19:45:25.856Z,3.89
2023-03-04T19:48:35.117Z,3.88
2023-03-04T19:51:42.377Z,3.90
2023-03-04T19:54:48.567Z,3.93
2023-03-04T19:57:58.718Z,3.91
2023-03-04T20:01:05.097Z,3.83
2023-03-04T20:04:18.398Z,3.88
2023-03-04T20:07:24.314Z,3.86
2023-03-04T20:10:36.857Z,3.79
2023-03-04T20:13:50.546Z,3.71
2023-03-04T20:17:01.120Z,3.74
2023-03-04T20:20:15.978Z,3.72
2023-03-04T20:23:22.608Z,3.72
2023-03-04T20:26:28.701Z,3.68
2023-03-04T20:29:35.934Z,3.68
2023-03-04T20:32:41.875Z,3.48
2023-03-04T20:35:51.127Z,3.68
2023-03-04T20:39:02.319Z,3.65
2023-03-04T20:42:10.161Z,3.65
2023-03-04T20:45:20.398Z,3.67
2023-03-04T20:48:32.213Z,3.66
2023-03-04T20:51:47.936Z,3.67
2023-03-04T20:54:54.717Z,3.65
2023-03-04T20:58:00.659Z,3.62
2023-03-04T21:01:07.809Z,3.70
2023-03-04T21:04:14.864Z,3.73
2023-03-04T21:07:27.231Z,3.66
2023-03-04T21:10:33.097Z,3.66
2023-03-04T21:13:43.615Z,3.83
2023-03-04T21:16:50.087Z,3.72
2023-03-04T21:19:58.891Z,3.81
2023-03-04T21:23:07.465Z,3.83
2023-03-04T21:26:14.140Z,3.86
2023-03-04T21:29:24.020Z,3.88
2023-03-04T21:32:30.843Z,3.90
2023-03-04T21:35:38.148Z,3.96
2023-03-04T21:38:50.760Z,3.97
2023-03-04T21:41:58.459Z,3.94
2023-03-04T21:45:05.808Z,3.79
2023-03-04T21:48:11.717Z,3.97
2023-03-04T21:51:23.100Z,4.08
2023-03-04T21:54:32.328Z,3.97
2023-03-04T21:57:40.777Z,3.86
2023-03-04T22:00:47.153Z,3.58
2023-03-04T22:03:54.141Z,3.08
2023-03-04T22:07:00.004Z,2.97
2023-03-04T22:10:12.020Z,2.88
2023-03-04T22:13:19.638Z,2.80
2023-03-04T22:16:27.635Z,2.83
2023-03-04T22:19:35.622Z,2.90
2023-03-04T22:22:42.629Z,2.92
2023-03-04T22:25:51.316Z,3.06
2023-03-04T22:29:00.430Z,3.15
2023-03-04T22:32:12.156Z,3.23
2023-03-04T22:35:19.316Z,3.25
2023-03-04T22:38:30.131Z,3.23
2023-03-04T22:41:39.902Z,3.12
2023-03-04T22:44:45.897Z,3.13
2023-03-04T22:47:57.337Z,3.19
2023-03-04T22:51:09.693Z,3.16
2023-03-04T22:54:19.928Z,3.18
2023-03-04T22:57:28.548Z,3.09
2023-03-04T23:00:35.812Z,3.15
2023-03-04T23:03:43.971Z,3.06
2023-03-04T23:06:50.639Z,3.01
2023-03-04T23:09:56.583Z,2.98
2023-03-04T23:13:06.119Z,2.85
2023-03-04T23:16:15.168Z,3.03
2023-03-04T23:19:23.703Z,3.05
2023-03-04T23:22:29.677Z,3.00
2023-03-04T23:25:39.637Z,3.11
2023-03-04T23:28:49.336Z,2.99
2023-03-04T23:31:55.981Z,2.88
2023-03-04T23:35:02.048Z,2.79
2023-03-04T23:38:11.207Z,2.84
2023-03-04T23:41:20.982Z,2.81
2023-03-04T23:44:30.881Z,2.89
2023-03-04T23:47:37.667Z,3.06
2023-03-04T23:50:44.297Z,3.10
2023-03-04T23:53:51.123Z,3.20
2023-03-04T23:56:57.826Z,3.24
